sensor_id;sensor_type;location;lat;lon;timestamp;temperature;humidity
9542;DHT22;4809;48.224;8.572;2022-09-29T00:01:10;7.60;92.80
9542;DHT22;4809;48.224;8.572;2022-09-29T00:03:37;7.60;92.70
9542;DHT22;4809;48.224;8.572;2022-09-29T00:06:03;7.60;92.70
9542;DHT22;4809;48.224;8.572;2022-09-29T00:08:35;7.60;92.70
9542;DHT22;4809;48.224;8.572;2022-09-29T00:11:00;7.60;92.70
9542;DHT22;4809;48.224;8.572;2022-09-29T00:13:31;7.60;92.60
9542;DHT22;4809;48.224;8.572;2022-09-29T00:15:58;7.60;92.60
9542;DHT22;4809;48.224;8.572;2022-09-29T00:18:24;7.60;92.70
9542;DHT22;4809;48.224;8.572;2022-09-29T00:21:01;7.60;92.70
9542;DHT22;4809;48.224;8.572;2022-09-29T00:23:29;7.60;92.70
9542;DHT22;4809;48.224;8.572;2022-09-29T00:26:03;7.60;92.70
9542;DHT22;4809;48.224;8.572;2022-09-29T00:28:29;7.60;92.80
9542;DHT22;4809;48.224;8.572;2022-09-29T00:30:57;7.60;92.70
9542;DHT22;4809;48.224;8.572;2022-09-29T00:33:24;7.60;92.80
9542;DHT22;4809;48.224;8.572;2022-09-29T00:35:58;7.60;92.70
9542;DHT22;4809;48.224;8.572;2022-09-29T00:38:24;7.60;92.90
9542;DHT22;4809;48.224;8.572;2022-09-29T00:40:50;7.60;92.70
9542;DHT22;4809;48.224;8.572;2022-09-29T00:43:24;7.70;92.70
9542;DHT22;4809;48.224;8.572;2022-09-29T00:45:52;7.70;92.70
9542;DHT22;4809;48.224;8.572;2022-09-29T00:48:28;7.70;92.80
9542;DHT22;4809;48.224;8.572;2022-09-29T00:50:55;7.80;92.70
9542;DHT22;4809;48.224;8.572;2022-09-29T00:53:22;7.80;92.60
9542;DHT22;4809;48.224;8.572;2022-09-29T00:55:57;7.80;92.60
9542;DHT22;4809;48.224;8.572;2022-09-29T00:58:36;7.80;92.60
9542;DHT22;4809;48.224;8.572;2022-09-29T01:01:04;7.80;92.60
9542;DHT22;4809;48.224;8.572;2022-09-29T01:03:34;7.80;92.40
9542;DHT22;4809;48.224;8.572;2022-09-29T01:06:30;7.80;92.10
9542;DHT22;4809;48.224;8.572;2022-09-29T01:09:05;7.80;92.00
9542;DHT22;4809;48.224;8.572;2022-09-29T01:11:33;7.80;91.90
9542;DHT22;4809;48.224;8.572;2022-09-29T01:14:01;7.80;91.80
9542;DHT22;4809;48.224;8.572;2022-09-29T01:16:30;7.90;92.20
9542;DHT22;4809;48.224;8.572;2022-09-29T01:18:58;7.90;92.20
9542;DHT22;4809;48.224;8.572;2022-09-29T01:24:07;7.80;92.40
9542;DHT22;4809;48.224;8.572;2022-09-29T01:41:04;7.80;92.50
9542;DHT22;4809;48.224;8.572;2022-09-29T01:43:45;7.80;92.70
9542;DHT22;4809;48.224;8.572;2022-09-29T01:46:21;7.80;92.70
9542;DHT22;4809;48.224;8.572;2022-09-29T01:48:51;7.80;92.70
9542;DHT22;4809;48.224;8.572;2022-09-29T01:51:21;7.80;92.80
9542;DHT22;4809;48.224;8.572;2022-09-29T01:53:50;7.80;92.60
9542;DHT22;4809;48.224;8.572;2022-09-29T01:56:26;7.80;92.50
9542;DHT22;4809;48.224;8.572;2022-09-29T01:58:57;7.80;92.50
9542;DHT22;4809;48.224;8.572;2022-09-29T02:01:29;7.80;92.40
9542;DHT22;4809;48.224;8.572;2022-09-29T02:04:23;7.80;92.40
9542;DHT22;4809;48.224;8.572;2022-09-29T02:07:18;7.80;92.50
9542;DHT22;4809;48.224;8.572;2022-09-29T02:09:49;7.80;92.50
9542;DHT22;4809;48.224;8.572;2022-09-29T02:12:21;7.70;92.50
9542;DHT22;4809;48.224;8.572;2022-09-29T02:14:50;7.70;92.60
9542;DHT22;4809;48.224;8.572;2022-09-29T02:17:25;7.80;92.80
9542;DHT22;4809;48.224;8.572;2022-09-29T02:19:53;7.80;92.90
9542;DHT22;4809;48.224;8.572;2022-09-29T02:22:19;7.70;92.90
9542;DHT22;4809;48.224;8.572;2022-09-29T02:24:45;7.70;93.00
9542;DHT22;4809;48.224;8.572;2022-09-29T02:27:11;7.70;93.00
9542;DHT22;4809;48.224;8.572;2022-09-29T02:29:38;7.70;93.10
9542;DHT22;4809;48.224;8.572;2022-09-29T02:32:05;7.80;93.20
9542;DHT22;4809;48.224;8.572;2022-09-29T02:34:34;7.80;93.20
9542;DHT22;4809;48.224;8.572;2022-09-29T02:47:47;7.80;93.20
9542;DHT22;4809;48.224;8.572;2022-09-29T02:56:14;7.90;93.30
9542;DHT22;4809;48.224;8.572;2022-09-29T03:01:12;7.90;93.30
9542;DHT22;4809;48.224;8.572;2022-09-29T03:03:41;7.90;93.30
9542;DHT22;4809;48.224;8.572;2022-09-29T03:06:07;7.90;93.30
9542;DHT22;4809;48.224;8.572;2022-09-29T03:08:33;7.90;93.30
9542;DHT22;4809;48.224;8.572;2022-09-29T03:10:58;7.90;93.30
9542;DHT22;4809;48.224;8.572;2022-09-29T03:13:24;7.90;93.40
9542;DHT22;4809;48.224;8.572;2022-09-29T03:15:50;7.90;93.50
9542;DHT22;4809;48.224;8.572;2022-09-29T03:18:16;7.90;93.30
9542;DHT22;4809;48.224;8.572;2022-09-29T03:20:41;7.90;93.30
9542;DHT22;4809;48.224;8.572;2022-09-29T03:23:07;7.90;93.20
9542;DHT22;4809;48.224;8.572;2022-09-29T03:25:32;8.00;93.10
9542;DHT22;4809;48.224;8.572;2022-09-29T03:27:58;8.00;93.20
9542;DHT22;4809;48.224;8.572;2022-09-29T03:30:24;8.00;93.30
9542;DHT22;4809;48.224;8.572;2022-09-29T03:32:50;8.00;93.30
9542;DHT22;4809;48.224;8.572;2022-09-29T03:35:15;8.00;93.50
9542;DHT22;4809;48.224;8.572;2022-09-29T03:37:41;8.00;93.30
9542;DHT22;4809;48.224;8.572;2022-09-29T03:40:07;7.90;93.60
9542;DHT22;4809;48.224;8.572;2022-09-29T03:42:33;8.00;93.20
9542;DHT22;4809;48.224;8.572;2022-09-29T03:44:59;7.90;93.30
9542;DHT22;4809;48.224;8.572;2022-09-29T03:47:24;7.90;93.50
9542;DHT22;4809;48.224;8.572;2022-09-29T03:49:50;7.90;93.50
9542;DHT22;4809;48.224;8.572;2022-09-29T03:52:16;7.80;93.50
9542;DHT22;4809;48.224;8.572;2022-09-29T03:54:42;7.90;93.50
9542;DHT22;4809;48.224;8.572;2022-09-29T03:57:07;7.90;93.20
9542;DHT22;4809;48.224;8.572;2022-09-29T03:59:33;7.80;93.20
9542;DHT22;4809;48.224;8.572;2022-09-29T04:01:59;7.80;93.20
9542;DHT22;4809;48.224;8.572;2022-09-29T04:04:25;7.80;93.20
9542;DHT22;4809;48.224;8.572;2022-09-29T04:06:50;7.80;93.20
9542;DHT22;4809;48.224;8.572;2022-09-29T04:09:16;7.80;93.20
9542;DHT22;4809;48.224;8.572;2022-09-29T04:11:42;7.80;93.30
9542;DHT22;4809;48.224;8.572;2022-09-29T04:14:07;7.80;93.30
9542;DHT22;4809;48.224;8.572;2022-09-29T04:16:33;7.80;93.40
9542;DHT22;4809;48.224;8.572;2022-09-29T04:18:59;7.70;93.30
9542;DHT22;4809;48.224;8.572;2022-09-29T04:21:24;7.70;93.30
9542;DHT22;4809;48.224;8.572;2022-09-29T04:23:50;7.80;93.30
9542;DHT22;4809;48.224;8.572;2022-09-29T04:26:16;7.70;93.30
9542;DHT22;4809;48.224;8.572;2022-09-29T04:28:41;7.70;93.40
9542;DHT22;4809;48.224;8.572;2022-09-29T04:31:07;7.70;93.40
9542;DHT22;4809;48.224;8.572;2022-09-29T04:33:33;7.70;93.40
9542;DHT22;4809;48.224;8.572;2022-09-29T04:35:59;7.70;93.50
9542;DHT22;4809;48.224;8.572;2022-09-29T04:38:25;7.70;93.50
9542;DHT22;4809;48.224;8.572;2022-09-29T04:40:51;7.70;93.50
9542;DHT22;4809;48.224;8.572;2022-09-29T04:43:17;7.70;93.40
9542;DHT22;4809;48.224;8.572;2022-09-29T04:45:43;7.70;93.30
9542;DHT22;4809;48.224;8.572;2022-09-29T04:48:09;7.70;93.30
9542;DHT22;4809;48.224;8.572;2022-09-29T04:50:34;7.80;93.20
9542;DHT22;4809;48.224;8.572;2022-09-29T04:53:00;7.80;93.20
9542;DHT22;4809;48.224;8.572;2022-09-29T04:55:26;7.80;93.20
9542;DHT22;4809;48.224;8.572;2022-09-29T04:57:52;7.80;93.10
9542;DHT22;4809;48.224;8.572;2022-09-29T05:00:18;7.80;93.10
9542;DHT22;4809;48.224;8.572;2022-09-29T05:02:44;7.80;93.10
9542;DHT22;4809;48.224;8.572;2022-09-29T05:05:10;7.70;93.10
9542;DHT22;4809;48.224;8.572;2022-09-29T05:07:37;7.70;93.10
9542;DHT22;4809;48.224;8.572;2022-09-29T05:10:05;7.80;93.20
9542;DHT22;4809;48.224;8.572;2022-09-29T05:12:31;7.80;93.30
9542;DHT22;4809;48.224;8.572;2022-09-29T05:14:57;7.80;93.30
9542;DHT22;4809;48.224;8.572;2022-09-29T05:17:23;7.80;93.20
9542;DHT22;4809;48.224;8.572;2022-09-29T05:19:48;7.80;93.20
9542;DHT22;4809;48.224;8.572;2022-09-29T05:22:14;7.80;93.20
9542;DHT22;4809;48.224;8.572;2022-09-29T05:24:40;7.90;93.20
9542;DHT22;4809;48.224;8.572;2022-09-29T05:27:05;7.80;93.20
9542;DHT22;4809;48.224;8.572;2022-09-29T05:29:31;7.80;93.30
9542;DHT22;4809;48.224;8.572;2022-09-29T05:31:57;7.90;93.30
9542;DHT22;4809;48.224;8.572;2022-09-29T05:34:22;7.90;93.40
9542;DHT22;4809;48.224;8.572;2022-09-29T05:36:48;7.90;93.40
9542;DHT22;4809;48.224;8.572;2022-09-29T05:39:14;7.90;93.40
9542;DHT22;4809;48.224;8.572;2022-09-29T05:41:40;8.00;93.40
9542;DHT22;4809;48.224;8.572;2022-09-29T05:44:06;8.00;93.40
9542;DHT22;4809;48.224;8.572;2022-09-29T05:46:32;8.00;93.40
9542;DHT22;4809;48.224;8.572;2022-09-29T05:48:57;7.90;93.30
9542;DHT22;4809;48.224;8.572;2022-09-29T05:51:24;8.00;93.70
9542;DHT22;4809;48.224;8.572;2022-09-29T05:53:51;8.00;93.70
9542;DHT22;4809;48.224;8.572;2022-09-29T05:56:20;8.00;93.30
9542;DHT22;4809;48.224;8.572;2022-09-29T05:58:46;8.00;93.30
9542;DHT22;4809;48.224;8.572;2022-09-29T06:01:18;8.00;93.20
9542;DHT22;4809;48.224;8.572;2022-09-29T06:03:44;8.00;93.20
9542;DHT22;4809;48.224;8.572;2022-09-29T06:06:12;8.00;93.30
9542;DHT22;4809;48.224;8.572;2022-09-29T06:08:38;8.00;93.20
9542;DHT22;4809;48.224;8.572;2022-09-29T06:11:12;8.00;93.20
9542;DHT22;4809;48.224;8.572;2022-09-29T06:13:41;8.00;93.10
9542;DHT22;4809;48.224;8.572;2022-09-29T06:16:08;8.00;93.00
9542;DHT22;4809;48.224;8.572;2022-09-29T06:18:35;8.00;93.00
9542;DHT22;4809;48.224;8.572;2022-09-29T06:21:03;8.00;93.00
9542;DHT22;4809;48.224;8.572;2022-09-29T06:23:29;8.00;93.00
9542;DHT22;4809;48.224;8.572;2022-09-29T06:25:59;8.00;93.00
9542;DHT22;4809;48.224;8.572;2022-09-29T06:28:30;8.00;93.00
9542;DHT22;4809;48.224;8.572;2022-09-29T06:31:00;8.00;92.90
9542;DHT22;4809;48.224;8.572;2022-09-29T06:33:28;8.10;92.90
9542;DHT22;4809;48.224;8.572;2022-09-29T06:35:54;8.10;92.90
9542;DHT22;4809;48.224;8.572;2022-09-29T06:38:38;8.10;92.60
9542;DHT22;4809;48.224;8.572;2022-09-29T06:41:04;8.10;92.80
9542;DHT22;4809;48.224;8.572;2022-09-29T06:43:30;8.10;92.80
9542;DHT22;4809;48.224;8.572;2022-09-29T06:45:56;8.20;92.70
9542;DHT22;4809;48.224;8.572;2022-09-29T06:48:21;8.20;92.60
9542;DHT22;4809;48.224;8.572;2022-09-29T06:50:47;8.30;92.70
9542;DHT22;4809;48.224;8.572;2022-09-29T06:53:13;8.40;92.70
9542;DHT22;4809;48.224;8.572;2022-09-29T06:55:39;8.40;92.60
9542;DHT22;4809;48.224;8.572;2022-09-29T06:58:04;8.40;92.40
9542;DHT22;4809;48.224;8.572;2022-09-29T07:00:30;8.40;92.30
9542;DHT22;4809;48.224;8.572;2022-09-29T07:02:57;8.40;92.30
9542;DHT22;4809;48.224;8.572;2022-09-29T07:05:23;8.40;92.30
9542;DHT22;4809;48.224;8.572;2022-09-29T07:07:48;8.50;92.30
9542;DHT22;4809;48.224;8.572;2022-09-29T07:10:14;8.50;92.10
9542;DHT22;4809;48.224;8.572;2022-09-29T07:12:40;8.60;92.30
9542;DHT22;4809;48.224;8.572;2022-09-29T07:15:09;8.60;92.30
9542;DHT22;4809;48.224;8.572;2022-09-29T07:17:34;8.70;92.00
9542;DHT22;4809;48.224;8.572;2022-09-29T07:20:00;8.70;91.80
9542;DHT22;4809;48.224;8.572;2022-09-29T07:22:26;8.70;91.60
9542;DHT22;4809;48.224;8.572;2022-09-29T07:24:51;8.70;91.60
9542;DHT22;4809;48.224;8.572;2022-09-29T07:27:19;8.80;91.70
9542;DHT22;4809;48.224;8.572;2022-09-29T07:29:49;8.80;91.20
9542;DHT22;4809;48.224;8.572;2022-09-29T07:32:14;8.90;91.00
9542;DHT22;4809;48.224;8.572;2022-09-29T07:34:40;9.00;91.10
9542;DHT22;4809;48.224;8.572;2022-09-29T07:37:06;9.00;91.10
9542;DHT22;4809;48.224;8.572;2022-09-29T07:39:31;9.10;91.10
9542;DHT22;4809;48.224;8.572;2022-09-29T07:41:57;9.10;91.20
9542;DHT22;4809;48.224;8.572;2022-09-29T07:44:23;9.20;90.90
9542;DHT22;4809;48.224;8.572;2022-09-29T07:46:49;9.20;90.70
9542;DHT22;4809;48.224;8.572;2022-09-29T07:49:14;9.30;91.00
9542;DHT22;4809;48.224;8.572;2022-09-29T07:51:41;9.30;90.20
9542;DHT22;4809;48.224;8.572;2022-09-29T07:54:06;9.40;89.80
9542;DHT22;4809;48.224;8.572;2022-09-29T07:56:33;9.40;89.70
9542;DHT22;4809;48.224;8.572;2022-09-29T07:59:00;9.50;89.40
9542;DHT22;4809;48.224;8.572;2022-09-29T08:01:26;9.60;88.30
9542;DHT22;4809;48.224;8.572;2022-09-29T08:03:54;9.60;89.80
9542;DHT22;4809;48.224;8.572;2022-09-29T08:06:21;9.70;89.20
9542;DHT22;4809;48.224;8.572;2022-09-29T08:08:47;9.80;89.20
9542;DHT22;4809;48.224;8.572;2022-09-29T08:11:16;9.90;89.20
9542;DHT22;4809;48.224;8.572;2022-09-29T08:13:42;10.00;88.40
9542;DHT22;4809;48.224;8.572;2022-09-29T08:16:11;10.10;87.90
9542;DHT22;4809;48.224;8.572;2022-09-29T08:18:37;10.20;86.90
9542;DHT22;4809;48.224;8.572;2022-09-29T08:21:04;10.20;86.20
9542;DHT22;4809;48.224;8.572;2022-09-29T08:23:34;10.30;85.80
9542;DHT22;4809;48.224;8.572;2022-09-29T08:26:01;10.30;86.00
9542;DHT22;4809;48.224;8.572;2022-09-29T08:28:28;10.40;86.00
9542;DHT22;4809;48.224;8.572;2022-09-29T08:30:54;10.40;84.90
9542;DHT22;4809;48.224;8.572;2022-09-29T08:33:20;10.40;85.30
9542;DHT22;4809;48.224;8.572;2022-09-29T08:35:45;10.20;85.20
9542;DHT22;4809;48.224;8.572;2022-09-29T08:38:11;10.20;86.90
9542;DHT22;4809;48.224;8.572;2022-09-29T08:40:37;10.10;87.10
9542;DHT22;4809;48.224;8.572;2022-09-29T08:43:14;10.00;87.20
9542;DHT22;4809;48.224;8.572;2022-09-29T08:45:45;10.00;86.70
9542;DHT22;4809;48.224;8.572;2022-09-29T08:48:22;10.00;85.30
9542;DHT22;4809;48.224;8.572;2022-09-29T08:50:58;10.00;87.10
9542;DHT22;4809;48.224;8.572;2022-09-29T08:53:26;10.00;86.50
9542;DHT22;4809;48.224;8.572;2022-09-29T08:56:04;10.00;86.10
9542;DHT22;4809;48.224;8.572;2022-09-29T08:58:32;10.00;86.40
9542;DHT22;4809;48.224;8.572;2022-09-29T09:01:28;9.90;87.70
9542;DHT22;4809;48.224;8.572;2022-09-29T09:07:12;9.90;87.60
9542;DHT22;4809;48.224;8.572;2022-09-29T09:10:02;10.00;85.70
9542;DHT22;4809;48.224;8.572;2022-09-29T09:18:47;10.30;84.30
9542;DHT22;4809;48.224;8.572;2022-09-29T09:21:35;10.40;83.30
9542;DHT22;4809;48.224;8.572;2022-09-29T09:26:43;10.40;82.80
9542;DHT22;4809;48.224;8.572;2022-09-29T09:29:34;10.50;82.80
9542;DHT22;4809;48.224;8.572;2022-09-29T09:32:23;10.50;83.20
9542;DHT22;4809;48.224;8.572;2022-09-29T09:35:07;10.60;83.10
9542;DHT22;4809;48.224;8.572;2022-09-29T09:37:40;10.70;82.80
9542;DHT22;4809;48.224;8.572;2022-09-29T09:40:41;10.80;81.60
9542;DHT22;4809;48.224;8.572;2022-09-29T09:43:39;10.90;82.20
9542;DHT22;4809;48.224;8.572;2022-09-29T09:48:44;10.90;82.10
9542;DHT22;4809;48.224;8.572;2022-09-29T09:54:32;10.80;82.50
9542;DHT22;4809;48.224;8.572;2022-09-29T10:02:18;10.90;81.20
9542;DHT22;4809;48.224;8.572;2022-09-29T10:04:48;11.00;79.90
9542;DHT22;4809;48.224;8.572;2022-09-29T10:07:17;10.90;80.60
9542;DHT22;4809;48.224;8.572;2022-09-29T10:09:43;11.00;81.70
9542;DHT22;4809;48.224;8.572;2022-09-29T10:12:18;11.20;81.70
9542;DHT22;4809;48.224;8.572;2022-09-29T10:14:52;11.30;79.40
9542;DHT22;4809;48.224;8.572;2022-09-29T10:17:22;11.50;79.10
9542;DHT22;4809;48.224;8.572;2022-09-29T10:20:01;11.50;78.70
9542;DHT22;4809;48.224;8.572;2022-09-29T10:22:29;11.50;79.30
9542;DHT22;4809;48.224;8.572;2022-09-29T10:25:18;11.60;77.70
9542;DHT22;4809;48.224;8.572;2022-09-29T10:27:54;11.60;75.70
9542;DHT22;4809;48.224;8.572;2022-09-29T10:30:24;11.60;76.60
9542;DHT22;4809;48.224;8.572;2022-09-29T10:32:58;11.70;75.30
9542;DHT22;4809;48.224;8.572;2022-09-29T10:35:34;11.80;74.20
9542;DHT22;4809;48.224;8.572;2022-09-29T10:38:04;11.90;75.40
9542;DHT22;4809;48.224;8.572;2022-09-29T10:40:30;12.00;73.70
9542;DHT22;4809;48.224;8.572;2022-09-29T10:42:56;12.10;74.10
9542;DHT22;4809;48.224;8.572;2022-09-29T10:45:27;12.10;73.50
9542;DHT22;4809;48.224;8.572;2022-09-29T10:50:28;12.30;71.90
9542;DHT22;4809;48.224;8.572;2022-09-29T10:52:56;12.40;73.60
9542;DHT22;4809;48.224;8.572;2022-09-29T10:55:25;12.50;74.00
9542;DHT22;4809;48.224;8.572;2022-09-29T10:57:52;12.60;72.90
9542;DHT22;4809;48.224;8.572;2022-09-29T11:03:18;12.60;72.20
9542;DHT22;4809;48.224;8.572;2022-09-29T11:05:57;12.70;71.50
9542;DHT22;4809;48.224;8.572;2022-09-29T11:08:24;12.80;71.40
9542;DHT22;4809;48.224;8.572;2022-09-29T11:11:04;12.80;71.20
9542;DHT22;4809;48.224;8.572;2022-09-29T11:13:36;12.90;69.90
9542;DHT22;4809;48.224;8.572;2022-09-29T11:16:13;13.00;68.90
9542;DHT22;4809;48.224;8.572;2022-09-29T11:18:41;13.10;68.60
9542;DHT22;4809;48.224;8.572;2022-09-29T11:29:26;13.50;68.20
9542;DHT22;4809;48.224;8.572;2022-09-29T11:41:08;13.60;66.90
9542;DHT22;4809;48.224;8.572;2022-09-29T11:49:26;13.30;63.90
9542;DHT22;4809;48.224;8.572;2022-09-29T11:57:40;13.30;68.30
9542;DHT22;4809;48.224;8.572;2022-09-29T12:00:10;13.60;66.20
9542;DHT22;4809;48.224;8.572;2022-09-29T12:14:17;14.30;63.60
9542;DHT22;4809;48.224;8.572;2022-09-29T12:17:06;14.10;63.50
9542;DHT22;4809;48.224;8.572;2022-09-29T12:19:36;14.10;65.70
9542;DHT22;4809;48.224;8.572;2022-09-29T12:22:08;14.00;64.30
9542;DHT22;4809;48.224;8.572;2022-09-29T12:24:44;14.00;62.70
9542;DHT22;4809;48.224;8.572;2022-09-29T12:27:35;13.90;65.70
9542;DHT22;4809;48.224;8.572;2022-09-29T12:32:53;14.00;63.70
9542;DHT22;4809;48.224;8.572;2022-09-29T12:35:30;14.10;66.20
9542;DHT22;4809;48.224;8.572;2022-09-29T12:38:14;14.20;64.20
9542;DHT22;4809;48.224;8.572;2022-09-29T12:40:58;14.20;62.80
9542;DHT22;4809;48.224;8.572;2022-09-29T12:43:44;14.30;63.20
9542;DHT22;4809;48.224;8.572;2022-09-29T12:48:55;14.80;61.80
9542;DHT22;4809;48.224;8.572;2022-09-29T12:51:32;14.90;62.00
9542;DHT22;4809;48.224;8.572;2022-09-29T12:56:38;14.70;62.40
9542;DHT22;4809;48.224;8.572;2022-09-29T12:59:09;14.70;62.20
9542;DHT22;4809;48.224;8.572;2022-09-29T13:01:38;14.60;61.50
9542;DHT22;4809;48.224;8.572;2022-09-29T13:07:13;14.60;61.70
9542;DHT22;4809;48.224;8.572;2022-09-29T13:20:41;14.50;56.20
9542;DHT22;4809;48.224;8.572;2022-09-29T13:23:19;14.20;55.10
9542;DHT22;4809;48.224;8.572;2022-09-29T13:28:47;14.30;57.00
9542;DHT22;4809;48.224;8.572;2022-09-29T13:31:17;14.00;58.80
9542;DHT22;4809;48.224;8.572;2022-09-29T13:34:02;13.90;58.40
9542;DHT22;4809;48.224;8.572;2022-09-29T13:36:33;13.90;59.60
9542;DHT22;4809;48.224;8.572;2022-09-29T13:39:04;14.00;58.30
9542;DHT22;4809;48.224;8.572;2022-09-29T13:41:35;14.00;58.90
9542;DHT22;4809;48.224;8.572;2022-09-29T13:44:25;14.10;58.90
9542;DHT22;4809;48.224;8.572;2022-09-29T13:46:53;14.00;58.40
9542;DHT22;4809;48.224;8.572;2022-09-29T13:49:28;14.10;59.30
9542;DHT22;4809;48.224;8.572;2022-09-29T13:59:46;14.10;60.10
9542;DHT22;4809;48.224;8.572;2022-09-29T14:02:37;14.00;59.90
9542;DHT22;4809;48.224;8.572;2022-09-29T14:05:05;14.00;59.00
9542;DHT22;4809;48.224;8.572;2022-09-29T14:08:13;13.90;58.40
9542;DHT22;4809;48.224;8.572;2022-09-29T14:14:00;13.90;60.10
9542;DHT22;4809;48.224;8.572;2022-09-29T14:17:21;13.90;62.80
9542;DHT22;4809;48.224;8.572;2022-09-29T14:19:52;13.90;66.20
9542;DHT22;4809;48.224;8.572;2022-09-29T14:28:02;13.70;67.10
9542;DHT22;4809;48.224;8.572;2022-09-29T14:33:29;13.50;67.40
9542;DHT22;4809;48.224;8.572;2022-09-29T14:38:38;13.50;68.10
9542;DHT22;4809;48.224;8.572;2022-09-29T14:43:46;13.40;67.10
9542;DHT22;4809;48.224;8.572;2022-09-29T14:49:15;13.40;67.40
9542;DHT22;4809;48.224;8.572;2022-09-29T14:57:35;13.20;68.40
9542;DHT22;4809;48.224;8.572;2022-09-29T15:00:16;13.20;69.00
9542;DHT22;4809;48.224;8.572;2022-09-29T15:02:54;13.10;69.40
9542;DHT22;4809;48.224;8.572;2022-09-29T15:05:25;13.10;69.00
9542;DHT22;4809;48.224;8.572;2022-09-29T15:07:51;13.10;68.00
9542;DHT22;4809;48.224;8.572;2022-09-29T15:10:23;13.00;68.50
9542;DHT22;4809;48.224;8.572;2022-09-29T15:12:49;13.00;68.70
9542;DHT22;4809;48.224;8.572;2022-09-29T15:15:34;13.00;67.90
9542;DHT22;4809;48.224;8.572;2022-09-29T15:18:30;13.00;67.80
9542;DHT22;4809;48.224;8.572;2022-09-29T15:21:09;12.90;70.10
9542;DHT22;4809;48.224;8.572;2022-09-29T15:23:56;12.80;71.80
9542;DHT22;4809;48.224;8.572;2022-09-29T15:26:31;12.70;72.50
9542;DHT22;4809;48.224;8.572;2022-09-29T15:28:57;12.70;73.50
9542;DHT22;4809;48.224;8.572;2022-09-29T15:31:30;12.50;73.90
9542;DHT22;4809;48.224;8.572;2022-09-29T15:33:56;12.50;74.50
9542;DHT22;4809;48.224;8.572;2022-09-29T15:36:23;12.50;74.00
9542;DHT22;4809;48.224;8.572;2022-09-29T15:39:03;12.40;73.80
9542;DHT22;4809;48.224;8.572;2022-09-29T15:41:30;12.40;74.10
9542;DHT22;4809;48.224;8.572;2022-09-29T15:44:09;12.40;74.40
9542;DHT22;4809;48.224;8.572;2022-09-29T15:46:39;12.40;74.30
9542;DHT22;4809;48.224;8.572;2022-09-29T15:51:57;12.40;74.00
9542;DHT22;4809;48.224;8.572;2022-09-29T15:54:26;12.30;74.60
9542;DHT22;4809;48.224;8.572;2022-09-29T15:56:52;12.30;74.20
9542;DHT22;4809;48.224;8.572;2022-09-29T15:59:48;12.30;74.00
9542;DHT22;4809;48.224;8.572;2022-09-29T16:02:35;12.20;74.10
9542;DHT22;4809;48.224;8.572;2022-09-29T16:05:05;12.10;74.00
9542;DHT22;4809;48.224;8.572;2022-09-29T16:07:37;12.00;75.10
9542;DHT22;4809;48.224;8.572;2022-09-29T16:10:19;11.90;75.30
9542;DHT22;4809;48.224;8.572;2022-09-29T16:13:03;11.90;75.70
9542;DHT22;4809;48.224;8.572;2022-09-29T16:15:41;11.80;76.00
9542;DHT22;4809;48.224;8.572;2022-09-29T16:18:15;11.70;76.90
9542;DHT22;4809;48.224;8.572;2022-09-29T16:20:44;11.70;76.80
9542;DHT22;4809;48.224;8.572;2022-09-29T16:23:27;11.60;76.70
9542;DHT22;4809;48.224;8.572;2022-09-29T16:28:35;11.40;77.80
9542;DHT22;4809;48.224;8.572;2022-09-29T16:31:18;11.40;77.40
9542;DHT22;4809;48.224;8.572;2022-09-29T16:33:51;11.20;76.40
9542;DHT22;4809;48.224;8.572;2022-09-29T16:36:31;11.10;77.00
9542;DHT22;4809;48.224;8.572;2022-09-29T16:39:00;10.90;77.60
9542;DHT22;4809;48.224;8.572;2022-09-29T16:44:27;10.60;79.00
9542;DHT22;4809;48.224;8.572;2022-09-29T16:49:35;10.40;81.80
9542;DHT22;4809;48.224;8.572;2022-09-29T16:54:48;10.30;81.70
9542;DHT22;4809;48.224;8.572;2022-09-29T16:57:21;10.20;82.20
9542;DHT22;4809;48.224;8.572;2022-09-29T16:59:53;10.10;83.10
9542;DHT22;4809;48.224;8.572;2022-09-29T17:02:20;10.10;84.60
9542;DHT22;4809;48.224;8.572;2022-09-29T17:04:50;9.90;86.40
9542;DHT22;4809;48.224;8.572;2022-09-29T17:07:21;9.80;87.60
9542;DHT22;4809;48.224;8.572;2022-09-29T17:09:57;9.80;88.40
9542;DHT22;4809;48.224;8.572;2022-09-29T17:12:26;9.60;89.00
9542;DHT22;4809;48.224;8.572;2022-09-29T17:14:51;9.40;90.00
9542;DHT22;4809;48.224;8.572;2022-09-29T17:17:25;9.40;90.80
9542;DHT22;4809;48.224;8.572;2022-09-29T17:19:53;9.30;91.10
9542;DHT22;4809;48.224;8.572;2022-09-29T17:22:28;9.20;91.00
9542;DHT22;4809;48.224;8.572;2022-09-29T17:24:54;9.20;90.90
9542;DHT22;4809;48.224;8.572;2022-09-29T17:27:21;9.20;91.00
9542;DHT22;4809;48.224;8.572;2022-09-29T17:30:06;9.20;91.00
9542;DHT22;4809;48.224;8.572;2022-09-29T17:32:32;9.10;91.00
9542;DHT22;4809;48.224;8.572;2022-09-29T17:35:00;9.10;91.10
9542;DHT22;4809;48.224;8.572;2022-09-29T17:37:26;9.20;91.20
9542;DHT22;4809;48.224;8.572;2022-09-29T17:39:52;9.10;91.00
9542;DHT22;4809;48.224;8.572;2022-09-29T17:42:17;9.00;90.80
9542;DHT22;4809;48.224;8.572;2022-09-29T17:44:43;9.00;90.70
9542;DHT22;4809;48.224;8.572;2022-09-29T17:47:13;8.90;91.10
9542;DHT22;4809;48.224;8.572;2022-09-29T17:49:43;8.90;91.40
9542;DHT22;4809;48.224;8.572;2022-09-29T17:52:09;8.90;91.30
9542;DHT22;4809;48.224;8.572;2022-09-29T17:54:40;8.80;91.20
9542;DHT22;4809;48.224;8.572;2022-09-29T17:57:07;8.90;91.40
9542;DHT22;4809;48.224;8.572;2022-09-29T17:59:41;8.90;91.20
9542;DHT22;4809;48.224;8.572;2022-09-29T18:02:13;8.90;91.00
9542;DHT22;4809;48.224;8.572;2022-09-29T18:04:39;8.90;91.00
9542;DHT22;4809;48.224;8.572;2022-09-29T18:07:11;8.90;90.90
9542;DHT22;4809;48.224;8.572;2022-09-29T18:09:38;9.00;91.20
9542;DHT22;4809;48.224;8.572;2022-09-29T18:12:05;9.00;91.10
9542;DHT22;4809;48.224;8.572;2022-09-29T18:14:30;9.00;91.00
9542;DHT22;4809;48.224;8.572;2022-09-29T18:17:00;9.00;91.10
9542;DHT22;4809;48.224;8.572;2022-09-29T18:19:28;9.00;91.20
9542;DHT22;4809;48.224;8.572;2022-09-29T18:21:54;9.00;91.20
9542;DHT22;4809;48.224;8.572;2022-09-29T18:24:21;9.00;91.30
9542;DHT22;4809;48.224;8.572;2022-09-29T18:26:46;8.90;91.70
9542;DHT22;4809;48.224;8.572;2022-09-29T18:29:16;9.00;91.80
9542;DHT22;4809;48.224;8.572;2022-09-29T18:31:43;9.00;91.90
9542;DHT22;4809;48.224;8.572;2022-09-29T18:34:17;9.00;92.00
9542;DHT22;4809;48.224;8.572;2022-09-29T18:36:43;9.00;92.10
9542;DHT22;4809;48.224;8.572;2022-09-29T18:39:12;9.00;92.00
9542;DHT22;4809;48.224;8.572;2022-09-29T18:41:38;9.00;92.00
9542;DHT22;4809;48.224;8.572;2022-09-29T18:44:14;9.00;91.90
9542;DHT22;4809;48.224;8.572;2022-09-29T18:46:41;9.00;91.90
9542;DHT22;4809;48.224;8.572;2022-09-29T18:49:13;9.00;91.90
9542;DHT22;4809;48.224;8.572;2022-09-29T18:51:39;9.00;91.90
9542;DHT22;4809;48.224;8.572;2022-09-29T18:54:05;9.00;91.90
9542;DHT22;4809;48.224;8.572;2022-09-29T18:56:31;9.00;91.90
9542;DHT22;4809;48.224;8.572;2022-09-29T18:58:57;9.00;91.90
9542;DHT22;4809;48.224;8.572;2022-09-29T19:01:24;8.90;92.00
9542;DHT22;4809;48.224;8.572;2022-09-29T19:03:54;8.90;92.10
9542;DHT22;4809;48.224;8.572;2022-09-29T19:06:20;8.90;92.20
9542;DHT22;4809;48.224;8.572;2022-09-29T19:08:46;8.90;92.10
9542;DHT22;4809;48.224;8.572;2022-09-29T19:11:22;8.90;92.10
9542;DHT22;4809;48.224;8.572;2022-09-29T19:13:48;8.90;92.00
9542;DHT22;4809;48.224;8.572;2022-09-29T19:16:20;9.00;92.10
9542;DHT22;4809;48.224;8.572;2022-09-29T19:18:45;8.90;92.10
9542;DHT22;4809;48.224;8.572;2022-09-29T19:21:14;8.90;92.30
9542;DHT22;4809;48.224;8.572;2022-09-29T19:23:41;8.90;92.30
9542;DHT22;4809;48.224;8.572;2022-09-29T19:26:18;8.90;92.30
9542;DHT22;4809;48.224;8.572;2022-09-29T19:28:45;8.90;92.40
9542;DHT22;4809;48.224;8.572;2022-09-29T19:31:15;8.90;92.30